createdAt,value
2018-09-21T00:00:06.772Z,15.30
2018-09-21T00:01:06.775Z,15.20
2018-09-21T00:02:06.771Z,15.60
2018-09-21T00:03:06.767Z,15.00
2018-09-21T00:04:06.779Z,14.20
2018-09-21T00:05:06.770Z,15.90
2018-09-21T00:06:06.768Z,16.00
2018-09-21T00:07:06.765Z,17.70
2018-09-21T00:08:06.771Z,14.60
2018-09-21T00:09:06.774Z,16.40
2018-09-21T00:10:06.769Z,16.80
2018-09-21T00:11:06.766Z,14.40
2018-09-21T00:12:06.770Z,15.00
2018-09-21T00:13:06.767Z,17.00
2018-09-21T00:14:06.766Z,14.80
2018-09-21T00:15:06.761Z,15.20
2018-09-21T00:16:06.769Z,19.40
2018-09-21T00:17:06.765Z,17.20
2018-09-21T00:18:06.763Z,17.20
2018-09-21T00:19:06.765Z,16.70
2018-09-21T00:20:06.765Z,15.80
2018-09-21T00:21:06.768Z,14.80
2018-09-21T00:22:06.763Z,16.30
2018-09-21T00:23:06.760Z,16.00
2018-09-21T00:24:06.765Z,14.70
2018-09-21T00:25:06.760Z,17.30
2018-09-21T00:26:06.761Z,13.60
2018-09-21T00:27:06.759Z,16.10
2018-09-21T00:28:06.760Z,16.10
2018-09-21T00:29:06.763Z,17.10
2018-09-21T00:30:06.759Z,17.90
2018-09-21T00:31:06.762Z,15.00
2018-09-21T00:32:06.763Z,16.30
2018-09-21T00:33:06.752Z,14.70
2018-09-21T00:34:07.367Z,14.40
2018-09-21T00:35:06.757Z,15.00
2018-09-21T00:36:06.761Z,17.70
2018-09-21T00:37:06.755Z,15.00
2018-09-21T00:38:06.752Z,14.90
2018-09-21T00:39:06.757Z,16.80
2018-09-21T00:40:06.754Z,16.20
2018-09-21T00:41:06.755Z,15.90
2018-09-21T00:42:06.756Z,16.20
2018-09-21T00:43:06.754Z,13.60
2018-09-21T00:44:06.753Z,14.20
2018-09-21T00:45:06.750Z,16.40
2018-09-21T00:46:06.749Z,14.70
2018-09-21T00:47:06.755Z,13.20
2018-09-21T00:48:06.751Z,13.70
2018-09-21T00:49:06.761Z,14.80
2018-09-21T00:50:06.751Z,15.20
2018-09-21T00:51:06.748Z,16.10
2018-09-21T00:52:06.748Z,18.40
2018-09-21T00:53:06.748Z,14.00
2018-09-21T00:54:06.751Z,16.10
2018-09-21T00:55:06.747Z,16.40
2018-09-21T00:56:06.747Z,14.30
2018-09-21T00:57:06.750Z,14.80
2018-09-21T00:58:06.745Z,11.70
2018-09-21T00:59:06.748Z,15.10
2018-09-21T01:00:06.748Z,16.10
2018-09-21T01:01:06.756Z,13.20
2018-09-21T01:02:06.752Z,11.60
2018-09-21T01:03:06.744Z,13.50
2018-09-21T01:04:06.745Z,14.20
2018-09-21T01:05:06.739Z,13.10
2018-09-21T01:06:06.746Z,12.90
2018-09-21T01:07:06.741Z,13.50
2018-09-21T01:08:07.448Z,14.00
2018-09-21T01:09:06.740Z,13.90
2018-09-21T01:10:06.743Z,14.60
2018-09-21T01:11:06.744Z,14.60
2018-09-21T01:12:06.739Z,15.10
2018-09-21T01:13:06.737Z,13.10
2018-09-21T01:14:06.736Z,13.10
2018-09-21T01:15:06.736Z,13.10
2018-09-21T01:16:06.734Z,16.20
2018-09-21T01:17:06.735Z,12.10
2018-09-21T01:18:06.746Z,12.60
2018-09-21T01:19:06.735Z,11.90
2018-09-21T01:20:06.736Z,14.60
2018-09-21T01:21:06.735Z,13.30
2018-09-21T01:22:06.742Z,13.00
2018-09-21T01:23:06.732Z,13.70
2018-09-21T01:24:06.732Z,14.40
2018-09-21T01:25:06.734Z,12.00
2018-09-21T01:26:07.380Z,13.20
2018-09-21T01:27:06.732Z,14.90
2018-09-21T01:28:06.730Z,11.40
2018-09-21T01:29:06.731Z,13.30
2018-09-21T01:30:06.730Z,13.70
2018-09-21T01:31:06.734Z,12.90
2018-09-21T01:32:06.728Z,15.10
2018-09-21T01:33:06.731Z,13.10
2018-09-21T01:34:06.728Z,12.40
2018-09-21T01:35:06.726Z,13.70
2018-09-21T01:36:06.725Z,15.10
2018-09-21T01:37:06.726Z,12.70
2018-09-21T01:38:06.725Z,14.70
2018-09-21T01:39:06.727Z,15.20
2018-09-21T01:40:06.724Z,16.70
2018-09-21T01:41:06.730Z,11.40
2018-09-21T01:42:06.719Z,14.60
2018-09-21T01:43:06.723Z,14.30
2018-09-21T01:44:06.722Z,12.10
2018-09-21T01:45:06.721Z,12.70
2018-09-21T01:46:06.721Z,12.60
2018-09-21T01:47:06.718Z,14.70
2018-09-21T01:48:06.723Z,11.80
2018-09-21T01:49:06.719Z,11.20
2018-09-21T01:50:06.721Z,14.00
2018-09-21T01:51:06.719Z,14.20
2018-09-21T01:52:06.717Z,13.60
2018-09-21T01:53:06.754Z,13.50
2018-09-21T01:54:06.716Z,14.70
2018-09-21T01:55:06.715Z,12.40
2018-09-21T01:56:06.710Z,11.90
2018-09-21T01:57:06.714Z,12.60
2018-09-21T01:58:06.711Z,13.70
2018-09-21T01:59:06.713Z,11.70
2018-09-21T02:00:06.713Z,12.10
2018-09-21T02:01:06.715Z,10.60
2018-09-21T02:02:06.710Z,13.80
2018-09-21T02:03:06.713Z,12.10
2018-09-21T02:04:06.711Z,13.50
2018-09-21T02:05:06.709Z,13.30
2018-09-21T02:06:06.711Z,10.50
2018-09-21T02:07:06.710Z,12.40
2018-09-21T02:08:06.709Z,13.30
2018-09-21T02:09:06.711Z,11.30
2018-09-21T02:10:06.707Z,10.80
2018-09-21T02:11:06.716Z,12.40
2018-09-21T02:12:06.706Z,12.40
2018-09-21T02:13:06.703Z,14.60
2018-09-21T02:14:06.704Z,9.80
2018-09-21T02:15:06.706Z,11.70
2018-09-21T02:16:06.703Z,10.50
2018-09-21T02:17:06.700Z,12.60
2018-09-21T02:18:06.705Z,11.60
2018-09-21T02:19:06.702Z,10.40
2018-09-21T02:20:06.705Z,11.50
2018-09-21T02:21:06.700Z,13.40
2018-09-21T02:22:06.702Z,11.70
2018-09-21T02:23:06.701Z,12.10
2018-09-21T02:24:06.699Z,11.70
2018-09-21T02:25:06.699Z,12.10
2018-09-21T02:26:06.707Z,10.70
2018-09-21T02:27:06.697Z,11.70
2018-09-21T02:28:06.695Z,12.80
2018-09-21T02:29:06.696Z,13.50
2018-09-21T02:30:06.697Z,12.50
2018-09-21T02:31:06.698Z,12.30
2018-09-21T02:32:06.695Z,11.30
2018-09-21T02:33:06.695Z,12.80
2018-09-21T02:34:06.699Z,10.10
2018-09-21T02:35:06.696Z,11.90
2018-09-21T02:36:06.695Z,13.30
2018-09-21T02:37:06.693Z,11.00
2018-09-21T02:38:06.692Z,11.50
2018-09-21T02:39:06.692Z,9.80
2018-09-21T02:40:06.689Z,11.50
2018-09-21T02:41:06.688Z,11.90
2018-09-21T02:42:06.689Z,14.20
2018-09-21T02:43:06.689Z,12.20
2018-09-21T02:44:06.689Z,12.50
2018-09-21T02:45:06.690Z,12.70
2018-09-21T02:46:06.687Z,10.20
2018-09-21T02:47:06.688Z,11.60
2018-09-21T02:48:06.685Z,11.00
2018-09-21T02:49:06.691Z,11.10
2018-09-21T02:50:06.691Z,11.10
2018-09-21T02:51:06.690Z,11.40
2018-09-21T02:52:06.686Z,13.60
2018-09-21T02:53:06.685Z,9.90
2018-09-21T02:54:06.702Z,12.90
2018-09-21T02:55:06.682Z,9.60
2018-09-21T02:56:06.684Z,9.30
2018-09-21T02:57:06.683Z,11.60
2018-09-21T02:58:06.685Z,12.20
2018-09-21T02:59:06.689Z,10.10
2018-09-21T03:00:06.682Z,9.60
2018-09-21T03:01:06.686Z,11.80
2018-09-21T03:02:06.680Z,11.80
2018-09-21T03:03:06.680Z,9.50
2018-09-21T03:04:06.681Z,11.20
2018-09-21T03:05:06.678Z,9.60
2018-09-21T03:06:06.678Z,9.80
2018-09-21T03:07:06.679Z,9.60
2018-09-21T03:08:06.681Z,10.20
2018-09-21T03:09:06.676Z,10.90
2018-09-21T03:10:06.674Z,9.90
2018-09-21T03:11:06.674Z,9.60
2018-09-21T03:12:06.679Z,9.40
2018-09-21T03:13:06.688Z,11.10
2018-09-21T03:14:06.675Z,10.10
2018-09-21T03:15:06.680Z,11.20
2018-09-21T03:16:06.673Z,9.70
2018-09-21T03:17:06.674Z,11.10
2018-09-21T03:18:06.671Z,9.60
2018-09-21T03:19:06.672Z,10.90
2018-09-21T03:20:06.678Z,9.70
2018-09-21T03:21:06.676Z,9.40
2018-09-21T03:22:06.671Z,10.90
2018-09-21T03:23:06.672Z,9.70
2018-09-21T03:24:06.673Z,9.90
2018-09-21T03:25:06.672Z,10.20
2018-09-21T03:26:06.668Z,9.70
2018-09-21T03:27:06.675Z,11.10
2018-09-21T03:28:06.671Z,9.50
2018-09-21T03:29:06.670Z,10.60
2018-09-21T03:30:06.673Z,9.90
2018-09-21T03:31:06.671Z,9.60
2018-09-21T03:32:06.671Z,11.20
2018-09-21T03:33:06.670Z,10.00
2018-09-21T03:34:06.664Z,9.90
2018-09-21T03:35:06.674Z,9.80
2018-09-21T03:36:06.670Z,10.80
2018-09-21T03:37:06.668Z,9.80
2018-09-21T03:38:06.666Z,10.60
2018-09-21T03:39:06.670Z,9.80
2018-09-21T03:40:06.665Z,11.50
2018-09-21T03:41:06.667Z,12.40
2018-09-21T03:42:06.662Z,11.40
2018-09-21T03:43:06.668Z,10.20
2018-09-21T03:44:06.673Z,12.50
2018-09-21T03:45:06.668Z,10.10
2018-09-21T03:46:06.663Z,12.00
2018-09-21T03:47:06.667Z,10.00
2018-09-21T03:48:06.665Z,10.60
2018-09-21T03:49:06.661Z,10.30
2018-09-21T03:50:06.667Z,10.40
2018-09-21T03:51:07.434Z,9.80
2018-09-21T03:52:06.664Z,9.70
2018-09-21T03:53:06.661Z,9.70
2018-09-21T03:54:06.663Z,10.20
2018-09-21T03:55:06.665Z,10.10
2018-09-21T03:56:06.661Z,10.20
2018-09-21T03:57:06.660Z,11.20
2018-09-21T03:58:06.660Z,10.00
2018-09-21T03:59:06.665Z,10.00
2018-09-21T04:00:06.662Z,11.10
2018-09-21T04:01:06.776Z,10.40
2018-09-21T04:02:06.660Z,13.30
2018-09-21T04:03:06.660Z,9.90
2018-09-21T04:04:06.661Z,9.70
2018-09-21T04:05:06.664Z,9.80
2018-09-21T04:06:06.658Z,10.20
2018-09-21T04:07:06.662Z,10.80
2018-09-21T04:08:06.659Z,9.00
2018-09-21T04:09:06.657Z,10.10
2018-09-21T04:10:06.658Z,9.90
2018-09-21T04:11:06.666Z,11.30
2018-09-21T04:12:06.658Z,9.90
2018-09-21T04:13:06.670Z,10.30
2018-09-21T04:14:06.654Z,9.60
2018-09-21T04:15:06.668Z,9.80
2018-09-21T04:16:06.658Z,9.20
2018-09-21T04:17:06.657Z,9.80
2018-09-21T04:18:06.658Z,9.80
2018-09-21T04:19:06.651Z,9.80
2018-09-21T04:20:06.656Z,10.40
2018-09-21T04:21:06.655Z,10.60
2018-09-21T04:22:06.658Z,9.90
2018-09-21T04:23:06.692Z,9.80
2018-09-21T04:24:06.663Z,11.00
2018-09-21T04:25:06.652Z,12.50
2018-09-21T04:26:06.654Z,11.30
2018-09-21T04:27:06.652Z,11.30
2018-09-21T04:28:06.651Z,10.90
2018-09-21T04:29:06.654Z,10.40
2018-09-21T04:30:06.656Z,10.60
2018-09-21T04:31:06.660Z,10.90
2018-09-21T04:32:06.654Z,11.80
2018-09-21T04:33:06.656Z,13.60
2018-09-21T04:34:06.654Z,11.70
2018-09-21T04:35:06.653Z,10.90
2018-09-21T04:36:06.715Z,10.20
2018-09-21T04:37:06.653Z,9.50
2018-09-21T04:38:06.653Z,10.40
2018-09-21T04:39:06.655Z,10.90
2018-09-21T04:40:06.652Z,12.50
2018-09-21T04:41:06.653Z,12.20
2018-09-21T04:42:06.651Z,9.30
2018-09-21T04:43:06.653Z,9.70
2018-09-21T04:44:06.652Z,9.30
2018-09-21T04:45:06.652Z,10.30
2018-09-21T04:46:06.649Z,9.80
2018-09-21T04:47:06.656Z,9.70
2018-09-21T04:48:06.653Z,9.70
2018-09-21T04:49:06.651Z,9.20
2018-09-21T04:50:06.649Z,9.70
2018-09-21T04:51:06.653Z,9.60
2018-09-21T04:52:06.652Z,10.60
2018-09-21T04:53:06.651Z,9.50
2018-09-21T04:54:06.648Z,11.30
2018-09-21T04:55:06.652Z,10.60
2018-09-21T04:56:06.652Z,9.00
2018-09-21T04:57:06.647Z,9.90
2018-09-21T04:58:06.651Z,11.20
2018-09-21T04:59:06.650Z,9.00
2018-09-21T05:00:06.650Z,9.40
2018-09-21T05:01:06.653Z,9.80
2018-09-21T05:02:06.652Z,9.40
2018-09-21T05:03:06.650Z,9.60
2018-09-21T05:04:06.659Z,10.10
2018-09-21T05:05:06.651Z,9.30
2018-09-21T05:06:06.649Z,9.80
2018-09-21T05:07:06.650Z,12.10
2018-09-21T05:08:06.654Z,9.70
2018-09-21T05:09:06.652Z,11.30
2018-09-21T05:10:06.649Z,9.00
2018-09-21T05:11:06.651Z,12.40
2018-09-21T05:12:06.651Z,12.30
2018-09-21T05:13:06.656Z,9.70
2018-09-21T05:14:06.652Z,9.40
2018-09-21T05:15:06.655Z,9.80
2018-09-21T05:16:06.653Z,10.50
2018-09-21T05:17:06.655Z,8.90
2018-09-21T05:18:06.651Z,9.90
2018-09-21T05:19:06.649Z,8.80
2018-09-21T05:20:06.655Z,9.20
2018-09-21T05:21:06.659Z,9.20
2018-09-21T05:22:06.653Z,9.00
2018-09-21T05:23:06.652Z,9.90
2018-09-21T05:24:06.654Z,9.20
2018-09-21T05:25:06.654Z,11.10
2018-09-21T05:26:06.655Z,9.50
2018-09-21T05:27:06.651Z,8.70
2018-09-21T05:28:06.655Z,8.80
2018-09-21T05:29:06.660Z,8.80
2018-09-21T05:30:06.655Z,8.60
2018-09-21T05:31:06.659Z,8.40
2018-09-21T05:32:06.657Z,8.40
2018-09-21T05:33:06.658Z,9.60
2018-09-21T05:34:06.704Z,9.40
2018-09-21T05:35:06.714Z,8.80
2018-09-21T05:36:06.658Z,10.30
2018-09-21T05:37:06.657Z,8.90
2018-09-21T05:38:06.663Z,8.70
2018-09-21T05:39:06.659Z,10.00
2018-09-21T05:40:06.658Z,10.70
2018-09-21T05:41:06.659Z,9.00
2018-09-21T05:42:06.665Z,9.80
2018-09-21T05:43:06.661Z,7.90
2018-09-21T05:44:06.663Z,11.90
2018-09-21T05:45:06.667Z,9.40
2018-09-21T05:46:07.540Z,8.40
2018-09-21T05:47:06.714Z,8.80
2018-09-21T05:48:06.665Z,8.30
2018-09-21T05:49:06.670Z,8.00
2018-09-21T05:50:06.666Z,8.10
2018-09-21T05:51:06.667Z,9.50
2018-09-21T05:52:06.668Z,8.10
2018-09-21T05:53:06.668Z,8.00
2018-09-21T05:54:06.669Z,8.20
2018-09-21T05:55:06.671Z,8.50
2018-09-21T05:56:06.715Z,8.90
2018-09-21T05:57:07.465Z,8.70
2018-09-21T05:58:06.671Z,7.70
2018-09-21T05:59:07.467Z,10.00
2018-09-21T06:00:06.674Z,9.10
2018-09-21T06:01:06.677Z,9.80
2018-09-21T06:02:06.719Z,8.20
2018-09-21T06:03:07.466Z,8.90
2018-09-21T06:04:06.676Z,9.60
2018-09-21T06:05:06.684Z,7.90
2018-09-21T06:06:07.471Z,9.00
2018-09-21T06:07:06.682Z,8.20
2018-09-21T06:08:06.692Z,9.50
2018-09-21T06:09:06.682Z,7.80
2018-09-21T06:10:07.548Z,8.60
2018-09-21T06:11:06.688Z,7.60
2018-09-21T06:12:06.690Z,7.30
2018-09-21T06:13:06.696Z,7.50
2018-09-21T06:14:06.780Z,7.90
2018-09-21T06:15:06.691Z,8.20
2018-09-21T06:16:06.698Z,9.50
2018-09-21T06:17:06.702Z,9.70
2018-09-21T06:18:06.698Z,10.60
2018-09-21T06:19:06.701Z,9.20
2018-09-21T06:20:12.107Z,9.50
2018-09-21T06:21:06.738Z,7.90
2018-09-21T06:22:06.702Z,7.30
2018-09-21T06:23:06.758Z,7.80
2018-09-21T06:24:06.708Z,8.40
2018-09-21T06:25:06.708Z,8.50
2018-09-21T06:26:06.709Z,7.40
2018-09-21T06:27:06.716Z,7.90
2018-09-21T06:28:06.722Z,10.40
2018-09-21T06:29:06.718Z,8.30
2018-09-21T06:30:06.716Z,7.30
2018-09-21T06:31:06.720Z,8.80
2018-09-21T06:32:06.723Z,9.20
2018-09-21T06:33:06.726Z,9.60
2018-09-21T06:34:06.729Z,8.00
2018-09-21T06:35:06.730Z,7.30
2018-09-21T06:36:06.735Z,7.60
2018-09-21T06:37:06.735Z,8.00
2018-09-21T06:38:06.737Z,8.30
2018-09-21T06:39:06.740Z,8.40
2018-09-21T06:40:06.744Z,8.00
2018-09-21T06:41:06.773Z,8.30
2018-09-21T06:42:06.753Z,7.00
2018-09-21T06:43:06.753Z,9.70
2018-09-21T06:44:06.757Z,8.80
2018-09-21T06:45:06.755Z,6.70
2018-09-21T06:46:06.764Z,8.10
2018-09-21T06:47:06.762Z,7.20
2018-09-21T06:48:06.769Z,7.30
2018-09-21T06:49:06.774Z,9.90
2018-09-21T06:50:06.779Z,7.90
2018-09-21T06:51:06.784Z,7.00
2018-09-21T06:52:06.783Z,6.00
2018-09-21T06:53:06.786Z,8.20
2018-09-21T06:54:06.792Z,7.00
2018-09-21T06:55:06.793Z,10.80
2018-09-21T06:56:06.799Z,6.30
2018-09-21T06:57:06.799Z,8.20
2018-09-21T06:58:06.803Z,6.10
2018-09-21T06:59:06.806Z,7.60
2018-09-21T07:00:06.814Z,6.10
2018-09-21T07:01:06.820Z,6.40
2018-09-21T07:02:06.945Z,7.30
2018-09-21T07:03:06.828Z,6.00
2018-09-21T07:04:06.826Z,6.70
2018-09-21T07:05:07.562Z,7.70
2018-09-21T07:06:06.830Z,8.70
2018-09-21T07:07:06.838Z,6.40
2018-09-21T07:08:06.840Z,6.70
2018-09-21T07:09:06.842Z,7.40
2018-09-21T07:10:06.916Z,6.70
2018-09-21T07:11:06.896Z,7.50
2018-09-21T07:12:06.854Z,7.00
2018-09-21T07:13:06.858Z,6.90
2018-09-21T07:14:06.862Z,7.50
2018-09-21T07:15:06.861Z,6.90
2018-09-21T07:16:06.877Z,6.40
2018-09-21T07:17:06.869Z,8.80
2018-09-21T07:18:06.874Z,6.00
2018-09-21T07:19:06.879Z,6.90
2018-09-21T07:20:06.890Z,9.40
2018-09-21T07:21:06.883Z,7.80
2018-09-21T07:22:06.884Z,5.30
2018-09-21T07:23:06.889Z,5.40
2018-09-21T07:24:06.894Z,5.60
2018-09-21T07:25:06.896Z,5.20
2018-09-21T07:26:06.902Z,5.80
2018-09-21T07:27:06.905Z,5.40
2018-09-21T07:28:06.908Z,5.40
2018-09-21T07:29:06.906Z,5.90
2018-09-21T07:30:06.912Z,9.10
2018-09-21T07:31:06.970Z,6.60
2018-09-21T07:32:06.922Z,9.10
2018-09-21T07:33:06.920Z,7.70
2018-09-21T07:34:06.938Z,9.40
2018-09-21T07:35:06.936Z,6.80
2018-09-21T07:36:06.937Z,7.00
2018-09-21T07:37:06.931Z,6.20
2018-09-21T07:38:06.934Z,9.80
2018-09-21T07:39:06.935Z,7.40
2018-09-21T07:40:06.944Z,6.90
2018-09-21T07:41:06.945Z,9.40
2018-09-21T07:42:06.950Z,8.40
2018-09-21T07:43:07.046Z,7.10
2018-09-21T07:44:06.952Z,5.40
2018-09-21T07:45:06.959Z,6.30
2018-09-21T07:46:06.961Z,7.00
2018-09-21T07:47:06.964Z,5.60
2018-09-21T07:48:06.967Z,5.80
2018-09-21T07:49:06.969Z,6.50
2018-09-21T07:50:06.971Z,8.80
2018-09-21T07:51:06.978Z,7.80
2018-09-21T07:52:06.982Z,7.50
2018-09-21T07:53:06.979Z,8.50
2018-09-21T07:54:06.982Z,5.00
2018-09-21T07:55:06.986Z,4.90
2018-09-21T07:56:06.989Z,7.60
2018-09-21T07:57:06.990Z,7.40
2018-09-21T07:58:06.998Z,6.30
2018-09-21T07:59:07.057Z,7.60
2018-09-21T08:00:07.004Z,4.80
2018-09-21T08:01:07.004Z,4.90
2018-09-21T08:02:07.005Z,6.00
2018-09-21T08:03:07.014Z,4.70
2018-09-21T08:04:07.014Z,5.40
2018-09-21T08:05:07.020Z,4.70
2018-09-21T08:06:07.019Z,5.40
2018-09-21T08:07:07.083Z,5.20
2018-09-21T08:08:07.037Z,6.40
2018-09-21T08:09:07.031Z,5.90
2018-09-21T08:10:07.031Z,5.40
2018-09-21T08:11:07.036Z,5.00
2018-09-21T08:12:07.040Z,6.70
2018-09-21T08:13:07.040Z,7.30
2018-09-21T08:14:07.074Z,8.30
2018-09-21T08:15:07.049Z,6.20
2018-09-21T08:16:07.052Z,8.10
2018-09-21T08:17:07.055Z,6.20
2018-09-21T08:18:07.057Z,8.10
2018-09-21T08:19:07.064Z,7.00
2018-09-21T08:20:07.065Z,6.80
2018-09-21T08:21:07.064Z,8.90
2018-09-21T08:22:07.069Z,6.50
2018-09-21T08:23:07.073Z,6.70
2018-09-21T08:24:07.080Z,5.00
2018-09-21T08:25:07.128Z,6.90
2018-09-21T08:26:07.083Z,6.40
2018-09-21T08:27:07.089Z,7.00
2018-09-21T08:28:07.090Z,5.30
2018-09-21T08:29:07.092Z,5.10
2018-09-21T08:30:07.096Z,6.20
2018-09-21T08:31:07.099Z,6.40
2018-09-21T08:32:07.103Z,5.20
2018-09-21T08:33:07.127Z,6.30
2018-09-21T08:34:07.114Z,5.90
2018-09-21T08:35:07.112Z,6.80
2018-09-21T08:36:07.127Z,5.70
2018-09-21T08:37:07.150Z,7.40
2018-09-21T08:38:07.130Z,4.40
2018-09-21T08:39:07.124Z,5.40
2018-09-21T08:40:07.128Z,6.60
2018-09-21T08:41:07.135Z,6.80
2018-09-21T08:42:07.138Z,7.20
2018-09-21T08:43:07.147Z,6.70
2018-09-21T08:44:07.144Z,5.60
2018-09-21T08:45:07.145Z,9.10
2018-09-21T08:46:07.146Z,4.30
2018-09-21T08:47:07.176Z,6.20
2018-09-21T08:48:07.156Z,6.20
2018-09-21T08:49:07.162Z,5.20
2018-09-21T08:50:07.167Z,5.70
2018-09-21T08:51:07.168Z,9.00
2018-09-21T08:52:07.171Z,8.30
2018-09-21T08:53:07.174Z,5.20
2018-09-21T08:54:07.180Z,6.60
2018-09-21T08:55:07.183Z,5.70
2018-09-21T08:56:07.185Z,7.10
2018-09-21T08:57:07.189Z,6.10
2018-09-21T08:58:07.196Z,6.10
2018-09-21T08:59:07.195Z,6.10
2018-09-21T09:00:07.200Z,7.50
2018-09-21T09:01:07.205Z,4.80
2018-09-21T09:02:07.215Z,4.50
2018-09-21T09:03:07.332Z,7.80
2018-09-21T09:04:07.215Z,5.10
2018-09-21T09:05:07.218Z,9.20
2018-09-21T09:06:07.221Z,8.40
2018-09-21T09:07:07.224Z,7.40
2018-09-21T09:08:07.233Z,5.80
2018-09-21T09:09:07.233Z,8.40
2018-09-21T09:10:07.236Z,6.40
2018-09-21T09:11:07.244Z,8.20
2018-09-21T09:12:07.246Z,4.70
2018-09-21T09:13:07.249Z,6.10
2018-09-21T09:14:07.252Z,7.70
2018-09-21T09:15:07.257Z,5.00
2018-09-21T09:16:07.260Z,6.70
2018-09-21T09:17:07.264Z,7.90
2018-09-21T09:18:07.264Z,8.80
2018-09-21T09:19:07.271Z,8.20
2018-09-21T09:20:07.275Z,7.60
2018-09-21T09:21:07.279Z,8.50
2018-09-21T09:22:07.289Z,6.80
2018-09-21T09:23:07.307Z,8.20
2018-09-21T09:24:07.296Z,5.50
2018-09-21T09:25:07.321Z,7.80
2018-09-21T09:26:07.300Z,6.30
2018-09-21T09:27:07.305Z,4.80
2018-09-21T09:28:07.303Z,7.60
2018-09-21T09:29:07.309Z,8.10
2018-09-21T09:30:07.336Z,7.70
2018-09-21T09:31:07.319Z,6.00
2018-09-21T09:32:07.321Z,5.40
2018-09-21T09:33:07.326Z,6.10
2018-09-21T09:34:07.333Z,5.20
2018-09-21T09:35:07.365Z,7.40
2018-09-21T09:36:07.338Z,6.80
2018-09-21T09:37:07.347Z,7.50
2018-09-21T09:38:07.347Z,7.10
2018-09-21T09:39:07.350Z,4.90
2018-09-21T09:40:07.354Z,5.20
2018-09-21T09:41:07.359Z,6.90
2018-09-21T09:42:07.361Z,7.70
2018-09-21T09:43:07.453Z,6.70
2018-09-21T09:44:07.372Z,5.60
2018-09-21T09:45:07.385Z,8.20
2018-09-21T09:46:07.397Z,7.80
2018-09-21T09:47:07.387Z,6.90
2018-09-21T09:48:07.399Z,6.10
2018-09-21T09:49:07.447Z,5.10
2018-09-21T09:50:07.399Z,6.80
2018-09-21T09:51:07.401Z,7.00
2018-09-21T09:52:07.408Z,6.90
2018-09-21T09:53:07.458Z,6.50
2018-09-21T09:54:07.413Z,10.10
2018-09-21T09:55:07.419Z,7.40
2018-09-21T09:56:07.424Z,10.30
2018-09-21T09:57:07.430Z,7.40
2018-09-21T09:58:07.434Z,8.80
2018-09-21T09:59:07.439Z,6.50
2018-09-21T10:00:07.447Z,5.20
2018-09-21T10:01:07.451Z,4.80
2018-09-21T10:02:07.456Z,5.80
2018-09-21T10:03:07.455Z,6.50
2018-09-21T10:04:07.461Z,9.60
2018-09-21T10:05:07.464Z,8.70
2018-09-21T10:06:08.055Z,5.00
2018-09-21T10:07:07.577Z,6.70
2018-09-21T10:08:07.480Z,5.40
2018-09-21T10:09:07.492Z,6.50
2018-09-21T10:10:07.489Z,6.30
2018-09-21T10:11:07.491Z,6.60
2018-09-21T10:12:07.496Z,7.40
2018-09-21T10:13:07.501Z,8.30
2018-09-21T10:14:07.506Z,6.80
2018-09-21T10:15:07.513Z,4.90
2018-09-21T10:16:07.517Z,7.70
2018-09-21T10:17:07.524Z,8.20
2018-09-21T10:18:07.540Z,9.60
2018-09-21T10:19:07.541Z,5.60
2018-09-21T10:20:07.548Z,7.10
2018-09-21T10:21:07.557Z,5.70
2018-09-21T10:22:07.555Z,5.70
2018-09-21T10:23:07.558Z,6.50
2018-09-21T10:24:07.569Z,10.30
2018-09-21T10:25:07.563Z,7.80
2018-09-21T10:26:07.567Z,8.60
2018-09-21T10:27:07.624Z,5.60
2018-09-21T10:28:07.659Z,6.20
2018-09-21T10:29:07.591Z,6.40
2018-09-21T10:30:07.588Z,8.30
2018-09-21T10:31:07.593Z,6.70
2018-09-21T10:32:07.600Z,9.10
2018-09-21T10:33:07.606Z,9.00
2018-09-21T10:34:07.607Z,9.00
2018-09-21T10:35:07.613Z,6.80
2018-09-21T10:36:07.618Z,10.70
2018-09-21T10:37:07.629Z,6.30
2018-09-21T10:38:07.630Z,8.70
2018-09-21T10:39:07.693Z,6.70
2018-09-21T10:40:07.700Z,7.10
2018-09-21T10:41:07.646Z,7.80
2018-09-21T10:42:07.651Z,9.90
2018-09-21T10:43:07.720Z,8.20
2018-09-21T10:44:07.658Z,8.90
2018-09-21T10:45:07.665Z,7.80
2018-09-21T10:46:07.668Z,7.40
2018-09-21T10:47:07.679Z,7.00
2018-09-21T10:48:07.682Z,5.00
2018-09-21T10:49:07.690Z,6.50
2018-09-21T10:50:07.689Z,5.60
2018-09-21T10:51:07.697Z,7.90
2018-09-21T10:52:07.701Z,10.50
2018-09-21T10:53:07.708Z,9.60
2018-09-21T10:54:07.714Z,6.10
2018-09-21T10:55:07.715Z,8.90
2018-09-21T10:56:07.730Z,6.90
2018-09-21T10:57:07.725Z,7.90
2018-09-21T10:58:07.736Z,5.90
2018-09-21T10:59:07.740Z,7.20
2018-09-21T11:00:07.740Z,6.40
2018-09-21T11:01:07.755Z,6.90
2018-09-21T11:02:07.757Z,6.40
2018-09-21T11:03:07.758Z,9.10
2018-09-21T11:04:07.774Z,8.10
2018-09-21T11:05:07.774Z,5.70
2018-09-21T11:06:07.776Z,11.20
2018-09-21T11:07:07.787Z,6.20
2018-09-21T11:08:07.796Z,9.50
2018-09-21T11:09:07.794Z,7.30
2018-09-21T11:10:07.799Z,7.60
2018-09-21T11:11:07.805Z,7.70
2018-09-21T11:12:07.812Z,9.00
2018-09-21T11:13:08.690Z,9.10
2018-09-21T11:14:07.826Z,6.30
2018-09-21T11:15:07.834Z,4.40
2018-09-21T11:16:07.838Z,4.30
2018-09-21T11:17:07.843Z,7.60
2018-09-21T11:18:07.842Z,6.30
2018-09-21T11:19:07.864Z,6.90
2018-09-21T11:20:07.866Z,6.60
2018-09-21T11:21:07.861Z,10.40
2018-09-21T11:22:07.886Z,10.50
2018-09-21T11:23:07.883Z,7.50
2018-09-21T11:24:07.880Z,12.00
2018-09-21T11:25:07.898Z,13.80
2018-09-21T11:26:07.904Z,9.10
2018-09-21T11:27:07.903Z,10.00
2018-09-21T11:28:07.910Z,7.70
2018-09-21T11:29:07.922Z,8.80
2018-09-21T11:30:07.923Z,7.80
2018-09-21T11:31:07.930Z,9.40
2018-09-21T11:32:07.939Z,8.90
2018-09-21T11:33:07.977Z,6.10
2018-09-21T11:34:07.953Z,8.40
2018-09-21T11:35:07.961Z,10.00
2018-09-21T11:36:08.049Z,8.00
2018-09-21T11:37:08.029Z,11.40
2018-09-21T11:38:07.965Z,9.00
2018-09-21T11:39:07.977Z,6.80
2018-09-21T11:40:07.989Z,5.90
2018-09-21T11:41:08.021Z,8.30
2018-09-21T11:42:07.999Z,6.10
2018-09-21T11:43:08.005Z,9.10
2018-09-21T11:44:08.017Z,8.10
2018-09-21T11:45:08.025Z,9.30
2018-09-21T11:46:08.033Z,12.60
2018-09-21T11:47:08.122Z,6.30
2018-09-21T11:48:08.029Z,12.30
2018-09-21T11:49:08.040Z,8.10
2018-09-21T11:50:08.048Z,5.80
2018-09-21T11:51:08.052Z,7.20
2018-09-21T11:52:08.061Z,8.70
2018-09-21T11:53:08.072Z,8.60
2018-09-21T11:54:08.074Z,8.10
2018-09-21T11:55:08.097Z,8.60
2018-09-21T11:56:08.085Z,10.30
2018-09-21T11:57:08.093Z,9.50
2018-09-21T11:58:08.109Z,8.40
2018-09-21T11:59:08.102Z,10.30
2018-09-21T12:00:08.129Z,11.50
2018-09-21T12:01:08.118Z,8.90
2018-09-21T12:02:08.126Z,12.20
2018-09-21T12:03:08.129Z,11.30
2018-09-21T12:04:08.137Z,9.50
2018-09-21T12:05:08.144Z,7.90
2018-09-21T12:06:08.155Z,10.50
2018-09-21T12:07:08.157Z,7.20
2018-09-21T12:08:08.157Z,7.00
2018-09-21T12:09:08.166Z,11.10
2018-09-21T12:10:08.175Z,12.20
2018-09-21T12:11:08.334Z,9.80
2018-09-21T12:12:08.184Z,11.40
2018-09-21T12:13:08.190Z,9.60
2018-09-21T12:14:08.198Z,10.00
2018-09-21T12:15:08.203Z,11.90
2018-09-21T12:16:08.411Z,14.50
2018-09-21T12:17:08.270Z,12.90
2018-09-21T12:18:08.223Z,12.70
2018-09-21T12:19:08.227Z,9.80
2018-09-21T12:20:08.238Z,8.90
2018-09-21T12:21:08.243Z,11.10
2018-09-21T12:22:08.253Z,10.30
2018-09-21T12:23:08.252Z,13.70
2018-09-21T12:24:08.292Z,8.60
2018-09-21T12:25:08.268Z,11.20
2018-09-21T12:26:08.271Z,10.70
2018-09-21T12:27:08.279Z,12.50
2018-09-21T12:28:08.284Z,11.40
2018-09-21T12:29:08.289Z,16.10
2018-09-21T12:30:08.352Z,12.80
2018-09-21T12:31:08.304Z,15.00
2018-09-21T12:32:08.309Z,11.70
2018-09-21T12:33:08.316Z,9.00
2018-09-21T12:34:08.325Z,8.40
2018-09-21T12:35:08.338Z,13.80
2018-09-21T12:36:08.433Z,10.70
2018-09-21T12:37:08.340Z,15.80
2018-09-21T12:38:08.346Z,14.10
2018-09-21T12:39:08.355Z,12.00
2018-09-21T12:40:08.359Z,12.60
2018-09-21T12:41:08.376Z,11.60
2018-09-21T12:42:08.371Z,15.00
2018-09-21T12:43:08.380Z,15.50
2018-09-21T12:44:08.384Z,12.40
2018-09-21T12:45:08.396Z,16.70
2018-09-21T12:46:08.404Z,14.90
2018-09-21T12:47:08.403Z,19.00
2018-09-21T12:48:08.414Z,21.00
2018-09-21T12:49:08.474Z,19.60
2018-09-21T12:50:08.438Z,15.60
2018-09-21T12:51:08.432Z,22.50
2018-09-21T12:52:08.439Z,28.80
2018-09-21T12:53:08.441Z,21.50
2018-09-21T12:54:08.452Z,26.40
2018-09-21T12:55:08.459Z,20.60
2018-09-21T12:56:08.460Z,25.70
2018-09-21T12:57:08.469Z,24.10
2018-09-21T12:58:08.529Z,24.80
2018-09-21T12:59:09.120Z,21.90
2018-09-21T13:00:08.496Z,22.30
2018-09-21T13:01:08.500Z,18.70
2018-09-21T13:02:08.500Z,22.80
2018-09-21T13:03:08.506Z,18.60
2018-09-21T13:04:08.514Z,16.80
2018-09-21T13:05:08.524Z,16.40
2018-09-21T13:06:08.591Z,17.10
2018-09-21T13:07:08.538Z,19.30